createdAt,value
2023-01-06T00:00:26.756Z,100.00
2023-01-06T00:01:29.062Z,100.00
2023-01-06T00:02:30.622Z,100.00
2023-01-06T00:03:32.418Z,100.00
2023-01-06T00:04:34.043Z,100.00
2023-01-06T00:05:35.894Z,100.00
2023-01-06T00:06:37.477Z,100.00
2023-01-06T00:07:39.370Z,100.00
2023-01-06T00:08:40.897Z,100.00
2023-01-06T00:09:42.451Z,100.00
2023-01-06T00:10:43.973Z,100.00
2023-01-06T00:11:45.561Z,100.00
2023-01-06T00:12:48.775Z,100.00
2023-01-06T00:13:50.452Z,100.00
2023-01-06T00:14:52.446Z,100.00
2023-01-06T00:15:55.530Z,100.00
2023-01-06T00:16:57.169Z,100.00
2023-01-06T00:17:58.683Z,100.00
2023-01-06T00:19:00.527Z,100.00
2023-01-06T00:20:02.687Z,100.00
2023-01-06T00:21:05.027Z,98.52
2023-01-06T00:22:06.537Z,97.57
2023-01-06T00:23:08.063Z,97.35
2023-01-06T00:24:09.925Z,97.86
2023-01-06T00:25:11.557Z,96.84
2023-01-06T00:26:13.134Z,96.47
2023-01-06T00:27:14.842Z,96.75
2023-01-06T00:28:16.509Z,97.06
2023-01-06T00:29:18.059Z,96.72
2023-01-06T00:30:19.607Z,96.46
2023-01-06T00:31:21.325Z,96.54
2023-01-06T00:32:23.020Z,95.95
2023-01-06T00:33:24.672Z,95.85
2023-01-06T00:34:26.382Z,94.96
2023-01-06T00:35:27.915Z,93.64
2023-01-06T00:36:29.550Z,93.88
2023-01-06T00:37:31.211Z,92.20
2023-01-06T00:38:32.896Z,92.58
2023-01-06T00:39:34.452Z,91.02
2023-01-06T00:40:37.192Z,90.80
2023-01-06T00:41:57.939Z,90.56
2023-01-06T00:42:59.550Z,89.52
2023-01-06T00:44:02.211Z,89.84
2023-01-06T00:45:04.109Z,89.25
2023-01-06T00:46:05.672Z,89.35
2023-01-06T00:47:10.232Z,89.69
2023-01-06T00:48:11.860Z,89.12
2023-01-06T00:49:13.353Z,89.39
2023-01-06T00:50:14.919Z,89.09
2023-01-06T00:51:16.521Z,89.20
2023-01-06T00:52:18.080Z,88.61
2023-01-06T00:53:19.657Z,89.77
2023-01-06T00:54:21.643Z,90.18
2023-01-06T00:55:23.310Z,90.32
2023-01-06T00:56:24.997Z,88.79
2023-01-06T00:57:26.626Z,89.13
2023-01-06T00:58:31.713Z,88.73
2023-01-06T00:59:33.845Z,89.05
2023-01-06T01:00:35.612Z,89.95
2023-01-06T01:01:37.988Z,92.31
2023-01-06T01:02:39.751Z,93.97
2023-01-06T01:03:41.406Z,95.09
2023-01-06T01:04:42.976Z,95.17
2023-01-06T01:05:44.504Z,95.79
2023-01-06T01:06:47.431Z,96.29
2023-01-06T01:07:48.989Z,96.42
2023-01-06T01:08:55.598Z,96.86
2023-01-06T01:09:57.160Z,96.30
2023-01-06T01:11:07.724Z,95.88
2023-01-06T01:12:11.727Z,96.33
2023-01-06T01:13:13.290Z,96.02
2023-01-06T01:14:17.442Z,95.96
2023-01-06T01:15:18.944Z,95.99
2023-01-06T01:16:20.462Z,96.47
2023-01-06T01:17:31.368Z,96.74
2023-01-06T01:18:33.739Z,96.52
2023-01-06T01:19:35.896Z,96.94
2023-01-06T01:20:37.529Z,97.03
2023-01-06T01:21:39.765Z,97.00
2023-01-06T01:22:41.263Z,97.23
2023-01-06T01:23:42.795Z,97.68
2023-01-06T01:24:44.329Z,97.68
2023-01-06T01:25:45.948Z,100.00
2023-01-06T01:26:47.617Z,100.00
2023-01-06T01:27:49.117Z,100.00
2023-01-06T01:28:50.669Z,100.00
2023-01-06T01:29:52.183Z,100.00
2023-01-06T01:31:00.121Z,100.00
2023-01-06T01:32:01.912Z,100.00
2023-01-06T01:33:03.561Z,100.00
2023-01-06T01:34:05.386Z,100.00
2023-01-06T01:35:07.136Z,100.00
2023-01-06T01:36:10.777Z,100.00
2023-01-06T01:37:12.389Z,100.00
2023-01-06T01:38:13.927Z,100.00
2023-01-06T01:39:17.231Z,100.00
2023-01-06T01:40:18.794Z,100.00
2023-01-06T01:41:22.796Z,100.00
2023-01-06T01:42:24.359Z,100.00
2023-01-06T01:43:25.941Z,100.00
2023-01-06T01:44:52.050Z,100.00
2023-01-06T01:45:55.897Z,100.00
2023-01-06T01:46:57.755Z,100.00
2023-01-06T01:48:07.475Z,100.00
2023-01-06T01:49:18.149Z,100.00
2023-01-06T01:50:53.722Z,100.00
2023-01-06T01:51:57.269Z,100.00
2023-01-06T01:53:06.145Z,100.00
2023-01-06T01:54:11.256Z,100.00
2023-01-06T01:55:14.433Z,100.00
2023-01-06T01:56:21.236Z,100.00
2023-01-06T01:57:28.063Z,100.00
2023-01-06T01:58:48.963Z,100.00
2023-01-06T01:59:51.535Z,100.00
2023-01-06T02:00:53.311Z,100.00
2023-01-06T02:01:55.609Z,100.00
2023-01-06T02:02:58.390Z,100.00
2023-01-06T02:04:02.081Z,100.00
2023-01-06T02:05:04.103Z,100.00
2023-01-06T02:06:14.241Z,100.00
2023-01-06T02:07:15.769Z,100.00
2023-01-06T02:08:35.270Z,100.00
2023-01-06T02:09:51.867Z,100.00
2023-01-06T02:10:53.459Z,100.00
2023-01-06T02:11:56.803Z,100.00
2023-01-06T02:12:59.813Z,100.00
2023-01-06T02:14:11.239Z,99.95
2023-01-06T02:15:26.682Z,99.54
2023-01-06T02:16:43.457Z,98.10
2023-01-06T02:17:54.074Z,97.72
2023-01-06T02:19:07.717Z,98.00
2023-01-06T02:20:18.429Z,97.93
2023-01-06T02:21:35.804Z,97.67
2023-01-06T02:23:02.188Z,96.45
2023-01-06T02:24:44.412Z,96.43
2023-01-06T02:26:21.287Z,94.22
2023-01-06T02:27:57.366Z,93.06
2023-01-06T02:29:14.163Z,92.62
2023-01-06T02:30:43.251Z,91.71
2023-01-06T02:32:16.726Z,91.51
2023-01-06T02:33:42.794Z,92.06
2023-01-06T02:34:47.288Z,92.47
2023-01-06T02:36:24.966Z,92.86
2023-01-06T02:37:47.889Z,92.99
2023-01-06T02:38:56.601Z,93.01
2023-01-06T02:40:01.129Z,92.52
2023-01-06T02:41:25.602Z,93.53
2023-01-06T02:42:31.000Z,92.77
2023-01-06T02:43:44.140Z,92.62
2023-01-06T02:44:57.269Z,92.67
2023-01-06T02:46:07.665Z,93.56
2023-01-06T02:47:19.498Z,93.40
2023-01-06T02:48:33.744Z,93.38
2023-01-06T02:50:19.692Z,94.40
2023-01-06T02:51:43.343Z,94.61
2023-01-06T02:53:17.053Z,96.51
2023-01-06T02:54:42.423Z,97.77
2023-01-06T02:55:47.828Z,99.30
2023-01-06T02:56:55.749Z,99.97
2023-01-06T02:58:26.619Z,100.00
2023-01-06T02:59:36.307Z,100.00
2023-01-06T03:00:46.290Z,100.00
2023-01-06T03:01:52.854Z,100.00
2023-01-06T03:03:10.294Z,100.00
2023-01-06T03:04:20.936Z,100.00
2023-01-06T03:05:24.700Z,100.00
2023-01-06T03:06:29.852Z,100.00
2023-01-06T03:07:32.921Z,100.00
2023-01-06T03:08:36.242Z,100.00
2023-01-06T03:09:38.738Z,100.00
2023-01-06T03:10:43.168Z,100.00
2023-01-06T03:11:50.185Z,100.00
2023-01-06T03:12:56.542Z,100.00
2023-01-06T03:14:10.197Z,100.00
2023-01-06T03:15:12.101Z,99.73
2023-01-06T03:16:14.363Z,99.61
2023-01-06T03:17:15.963Z,98.53
2023-01-06T03:18:17.928Z,98.01
2023-01-06T03:19:19.520Z,97.92
2023-01-06T03:20:21.247Z,97.71
2023-01-06T03:21:26.980Z,96.94
2023-01-06T03:22:28.721Z,97.25
2023-01-06T03:23:30.363Z,96.29
2023-01-06T03:24:32.095Z,96.04
2023-01-06T03:25:33.622Z,96.42
2023-01-06T03:26:36.543Z,95.95
2023-01-06T03:27:38.065Z,94.30
2023-01-06T03:28:39.762Z,94.58
2023-01-06T03:29:41.491Z,94.92
2023-01-06T03:31:30.428Z,94.89
2023-01-06T03:32:40.177Z,94.68
2023-01-06T03:34:09.167Z,94.59
2023-01-06T03:35:37.540Z,95.00
2023-01-06T03:37:00.670Z,94.78
2023-01-06T03:38:25.536Z,93.87
2023-01-06T03:39:39.102Z,93.34
2023-01-06T03:40:44.216Z,93.57
2023-01-06T03:42:27.445Z,93.54
2023-01-06T03:43:47.002Z,94.15
2023-01-06T03:45:23.772Z,94.77
2023-01-06T03:46:38.564Z,94.02
2023-01-06T03:47:56.816Z,93.97
2023-01-06T03:49:07.997Z,94.19
2023-01-06T03:50:25.822Z,93.90
2023-01-06T03:51:31.124Z,93.20
2023-01-06T03:52:39.614Z,92.55
2023-01-06T03:53:56.409Z,91.45
2023-01-06T03:55:05.417Z,91.05
2023-01-06T03:56:19.239Z,91.04
2023-01-06T03:57:53.187Z,90.74
2023-01-06T03:58:58.852Z,90.16
2023-01-06T04:00:26.450Z,90.69
2023-01-06T04:01:29.719Z,91.32
2023-01-06T04:02:31.923Z,90.34
2023-01-06T04:03:34.413Z,90.70
2023-01-06T04:04:37.129Z,89.87
2023-01-06T04:05:38.732Z,89.61
2023-01-06T04:06:40.317Z,90.25
2023-01-06T04:07:43.799Z,90.28
2023-01-06T04:08:45.410Z,91.13
2023-01-06T04:09:46.962Z,91.64
2023-01-06T04:10:48.557Z,91.61
2023-01-06T04:12:08.667Z,91.73
2023-01-06T04:13:10.248Z,91.70
2023-01-06T04:14:11.963Z,92.22
2023-01-06T04:15:16.576Z,93.55
2023-01-06T04:16:18.153Z,95.54
2023-01-06T04:17:19.791Z,96.08
2023-01-06T04:18:21.327Z,96.36
2023-01-06T04:19:22.833Z,96.86
2023-01-06T04:20:28.025Z,95.90
2023-01-06T04:21:29.601Z,96.70
2023-01-06T04:22:31.239Z,97.17
2023-01-06T04:23:33.093Z,96.03
2023-01-06T04:24:34.658Z,96.01
2023-01-06T04:25:36.775Z,96.25
2023-01-06T04:26:38.332Z,96.75
2023-01-06T04:27:39.996Z,95.57
2023-01-06T04:28:41.576Z,95.74
2023-01-06T04:29:43.239Z,95.62
2023-01-06T04:30:44.818Z,96.65
2023-01-06T04:31:46.361Z,97.10
2023-01-06T04:32:48.012Z,98.32
2023-01-06T04:33:49.504Z,96.86
2023-01-06T04:34:51.368Z,94.95
2023-01-06T04:35:53.976Z,95.40
2023-01-06T04:36:57.211Z,95.75
2023-01-06T04:38:02.231Z,97.43
2023-01-06T04:39:04.063Z,99.30
2023-01-06T04:40:07.754Z,100.00
2023-01-06T04:41:09.343Z,100.00
2023-01-06T04:42:10.968Z,100.00
2023-01-06T04:43:18.938Z,100.00
2023-01-06T04:44:21.026Z,100.00
2023-01-06T04:45:22.944Z,100.00
2023-01-06T04:46:24.546Z,100.00
2023-01-06T04:47:26.103Z,100.00
2023-01-06T04:48:27.677Z,100.00
2023-01-06T04:49:29.268Z,100.00
2023-01-06T04:50:30.823Z,100.00
2023-01-06T04:51:32.368Z,100.00
2023-01-06T04:52:33.945Z,100.00
2023-01-06T04:53:37.565Z,100.00
2023-01-06T04:54:39.085Z,100.00
2023-01-06T04:55:41.929Z,100.00
2023-01-06T04:56:43.525Z,100.00
2023-01-06T04:57:45.141Z,100.00
2023-01-06T04:58:46.771Z,100.00
2023-01-06T04:59:48.299Z,100.00
2023-01-06T05:00:49.858Z,100.00
2023-01-06T05:01:51.633Z,100.00
2023-01-06T05:02:53.265Z,100.00
2023-01-06T05:03:55.028Z,100.00
2023-01-06T05:04:56.730Z,100.00
2023-01-06T05:06:09.833Z,100.00
2023-01-06T05:07:11.397Z,100.00
2023-01-06T05:08:12.929Z,100.00
2023-01-06T05:09:14.494Z,100.00
2023-01-06T05:10:16.121Z,100.00
2023-01-06T05:11:20.724Z,100.00
2023-01-06T05:12:22.531Z,100.00
2023-01-06T05:13:24.079Z,100.00
2023-01-06T05:14:25.607Z,100.00
2023-01-06T05:15:27.177Z,100.00
2023-01-06T05:16:33.857Z,100.00
2023-01-06T05:17:35.448Z,100.00
2023-01-06T05:18:37.141Z,100.00
2023-01-06T05:19:38.705Z,100.00
2023-01-06T05:20:40.271Z,100.00
2023-01-06T05:21:41.803Z,100.00
2023-01-06T05:22:43.451Z,100.00
2023-01-06T05:23:46.040Z,100.00
2023-01-06T05:24:47.700Z,100.00
2023-01-06T05:25:52.586Z,97.53
2023-01-06T05:26:55.052Z,96.48
2023-01-06T05:27:56.619Z,98.02
2023-01-06T05:28:58.202Z,99.19
2023-01-06T05:29:59.770Z,100.00
2023-01-06T05:31:02.721Z,100.00
2023-01-06T05:32:05.911Z,100.00
2023-01-06T05:33:07.630Z,100.00
2023-01-06T05:34:11.194Z,100.00
2023-01-06T05:35:12.827Z,100.00
2023-01-06T05:36:16.790Z,100.00
2023-01-06T05:37:18.388Z,100.00
2023-01-06T05:38:20.079Z,100.00
2023-01-06T05:39:21.668Z,100.00
2023-01-06T05:40:23.923Z,100.00
2023-01-06T05:41:25.452Z,100.00
2023-01-06T05:42:27.005Z,99.20
2023-01-06T05:43:29.410Z,98.58
2023-01-06T05:44:31.620Z,97.71
2023-01-06T05:45:33.223Z,97.69
2023-01-06T05:46:34.926Z,97.99
2023-01-06T05:47:36.553Z,98.75
2023-01-06T05:48:39.256Z,99.24
2023-01-06T05:49:40.872Z,99.41
2023-01-06T05:50:42.624Z,99.66
2023-01-06T05:51:44.158Z,100.00
2023-01-06T05:52:45.699Z,100.00
2023-01-06T05:53:48.725Z,100.00
2023-01-06T05:54:50.268Z,100.00
2023-01-06T05:55:51.825Z,100.00
2023-01-06T05:56:53.367Z,100.00
2023-01-06T05:57:54.876Z,100.00
2023-01-06T05:58:56.436Z,100.00
2023-01-06T05:59:57.997Z,100.00
2023-01-06T06:01:04.122Z,100.00
2023-01-06T06:02:05.850Z,100.00
2023-01-06T06:03:07.406Z,100.00
2023-01-06T06:04:09.051Z,100.00
2023-01-06T06:05:10.995Z,100.00
2023-01-06T06:06:12.553Z,100.00
2023-01-06T06:07:14.134Z,100.00
2023-01-06T06:08:16.107Z,100.00
2023-01-06T06:09:17.670Z,100.00
2023-01-06T06:10:19.194Z,100.00
2023-01-06T06:11:22.348Z,100.00
2023-01-06T06:12:24.002Z,100.00
2023-01-06T06:13:25.572Z,100.00
2023-01-06T06:14:27.306Z,100.00
2023-01-06T06:15:28.858Z,100.00
2023-01-06T06:16:30.533Z,100.00
2023-01-06T06:17:32.106Z,100.00
2023-01-06T06:18:34.076Z,100.00
2023-01-06T06:19:35.571Z,100.00
2023-01-06T06:20:37.140Z,100.00
2023-01-06T06:21:39.199Z,100.00
2023-01-06T06:22:40.705Z,100.00
2023-01-06T06:23:43.176Z,100.00
2023-01-06T06:24:44.957Z,100.00
2023-01-06T06:25:50.261Z,100.00
2023-01-06T06:26:51.917Z,100.00
2023-01-06T06:27:57.479Z,100.00
2023-01-06T06:28:59.037Z,100.00
2023-01-06T06:30:00.603Z,99.70
2023-01-06T06:31:06.671Z,100.00
2023-01-06T06:32:08.267Z,100.00
2023-01-06T06:33:09.791Z,100.00
2023-01-06T06:34:13.123Z,100.00
2023-01-06T06:35:14.784Z,100.00
2023-01-06T06:36:16.489Z,100.00
2023-01-06T06:37:18.088Z,100.00
2023-01-06T06:38:19.648Z,100.00
2023-01-06T06:39:22.107Z,100.00
2023-01-06T06:40:23.827Z,100.00
2023-01-06T06:41:25.889Z,100.00
2023-01-06T06:42:27.453Z,100.00
2023-01-06T06:43:29.292Z,100.00
2023-01-06T06:44:30.815Z,100.00
2023-01-06T06:45:32.397Z,100.00
2023-01-06T06:46:33.939Z,100.00
2023-01-06T06:47:35.561Z,100.00
2023-01-06T06:48:37.542Z,100.00
2023-01-06T06:49:39.125Z,100.00
2023-01-06T06:50:40.660Z,100.00
2023-01-06T06:51:42.279Z,100.00
2023-01-06T06:52:43.869Z,100.00
2023-01-06T06:53:45.991Z,100.00
2023-01-06T06:54:47.482Z,100.00
2023-01-06T06:55:49.015Z,97.00
2023-01-06T06:56:50.591Z,94.19
2023-01-06T06:57:52.113Z,93.35
2023-01-06T06:58:53.699Z,93.98
2023-01-06T06:59:57.840Z,92.93
2023-01-06T07:01:04.284Z,92.04
2023-01-06T07:02:06.477Z,91.41
2023-01-06T07:03:08.073Z,92.41
2023-01-06T07:04:09.696Z,94.40
2023-01-06T07:05:11.224Z,94.60
2023-01-06T07:06:16.730Z,94.24
2023-01-06T07:07:18.343Z,95.61
2023-01-06T07:08:20.262Z,95.91
2023-01-06T07:09:21.792Z,96.82
2023-01-06T07:10:23.301Z,97.40
2023-01-06T07:11:24.831Z,97.28
2023-01-06T07:12:26.339Z,96.49
2023-01-06T07:13:28.324Z,95.18
2023-01-06T07:14:29.895Z,94.35
2023-01-06T07:15:31.565Z,92.91
2023-01-06T07:16:33.114Z,93.00
2023-01-06T07:17:34.714Z,92.47
2023-01-06T07:18:36.981Z,91.69
2023-01-06T07:19:38.496Z,90.23
2023-01-06T07:20:40.089Z,88.26
2023-01-06T07:21:41.779Z,89.68
2023-01-06T07:22:43.308Z,89.51
2023-01-06T07:23:44.827Z,90.49
2023-01-06T07:24:46.488Z,88.03
2023-01-06T07:26:01.590Z,88.08
2023-01-06T07:27:03.170Z,89.14
2023-01-06T07:28:05.646Z,90.65
2023-01-06T07:29:07.209Z,89.85
2023-01-06T07:30:09.240Z,89.82
2023-01-06T07:31:10.985Z,88.74
2023-01-06T07:32:12.568Z,88.83
2023-01-06T07:33:14.199Z,87.77
2023-01-06T07:34:15.754Z,86.15
2023-01-06T07:35:18.018Z,85.08
2023-01-06T07:36:19.541Z,84.73
2023-01-06T07:37:21.073Z,85.83
2023-01-06T07:38:23.511Z,86.23
2023-01-06T07:39:25.094Z,85.39
2023-01-06T07:40:26.605Z,84.55
2023-01-06T07:41:28.113Z,82.85
2023-01-06T07:42:29.641Z,83.59
2023-01-06T07:43:31.196Z,82.97
2023-01-06T07:44:32.802Z,83.66
2023-01-06T07:45:35.122Z,83.53
2023-01-06T07:46:36.689Z,82.56
2023-01-06T07:47:38.281Z,81.97
2023-01-06T07:48:39.850Z,82.33
2023-01-06T07:49:41.432Z,83.72
2023-01-06T07:50:43.005Z,83.99
2023-01-06T07:51:44.575Z,84.08
2023-01-06T07:52:46.201Z,84.14
2023-01-06T07:53:47.754Z,82.78
2023-01-06T07:54:49.303Z,83.32
2023-01-06T07:55:52.652Z,83.93
2023-01-06T07:56:54.224Z,83.22
2023-01-06T07:57:55.772Z,83.25
2023-01-06T07:58:57.734Z,82.88
2023-01-06T07:59:59.321Z,83.03
2023-01-06T08:01:05.948Z,82.68
2023-01-06T08:02:07.634Z,84.59
2023-01-06T08:03:11.631Z,84.78
2023-01-06T08:04:13.270Z,84.18
2023-01-06T08:05:14.849Z,83.05
2023-01-06T08:06:16.401Z,82.84
2023-01-06T08:07:18.239Z,82.02
2023-01-06T08:08:19.807Z,81.37
2023-01-06T08:09:21.351Z,80.96
2023-01-06T08:10:22.900Z,79.75
2023-01-06T08:11:24.553Z,79.15
2023-01-06T08:12:26.067Z,76.90
2023-01-06T08:13:27.604Z,76.42
2023-01-06T08:14:29.173Z,77.00
2023-01-06T08:15:30.778Z,76.38
2023-01-06T08:16:32.286Z,76.56
2023-01-06T08:17:33.821Z,77.13
2023-01-06T08:18:36.158Z,76.69
2023-01-06T08:19:37.742Z,77.74
2023-01-06T08:20:39.366Z,78.24
2023-01-06T08:21:40.878Z,76.83
2023-01-06T08:22:42.454Z,76.83
2023-01-06T08:23:43.998Z,77.36
2023-01-06T08:24:45.585Z,76.75
2023-01-06T08:25:47.122Z,76.40
2023-01-06T08:26:48.620Z,75.01
2023-01-06T08:27:50.227Z,75.29
2023-01-06T08:28:53.565Z,76.38
2023-01-06T08:29:55.471Z,75.89
2023-01-06T08:30:57.520Z,75.09
2023-01-06T08:32:09.806Z,75.05
2023-01-06T08:33:13.388Z,76.42
2023-01-06T08:34:15.089Z,76.52
2023-01-06T08:35:16.956Z,76.90
2023-01-06T08:36:20.743Z,77.16
2023-01-06T08:37:22.286Z,76.22
2023-01-06T08:38:23.849Z,76.97
2023-01-06T08:39:25.389Z,76.91
2023-01-06T08:40:26.910Z,75.78
2023-01-06T08:41:28.560Z,75.91
2023-01-06T08:42:30.104Z,77.49
2023-01-06T08:43:31.742Z,76.52
2023-01-06T08:44:33.309Z,76.83
2023-01-06T08:45:39.427Z,76.23
2023-01-06T08:46:41.089Z,75.68
2023-01-06T08:47:42.696Z,76.56
2023-01-06T08:48:44.903Z,75.66
2023-01-06T08:49:46.557Z,74.52
2023-01-06T08:50:48.162Z,74.31
2023-01-06T08:51:49.792Z,75.48
2023-01-06T08:52:52.115Z,74.33
2023-01-06T08:53:54.417Z,74.41
2023-01-06T08:54:55.997Z,74.98
2023-01-06T08:55:57.588Z,74.62
2023-01-06T08:56:59.181Z,74.32
2023-01-06T08:58:00.729Z,74.22
2023-01-06T08:59:03.851Z,72.12
2023-01-06T09:00:06.618Z,73.30
2023-01-06T09:01:16.236Z,73.13
2023-01-06T09:02:17.869Z,71.00
2023-01-06T09:03:19.585Z,69.75
2023-01-06T09:04:21.212Z,70.54
2023-01-06T09:05:22.779Z,70.61
2023-01-06T09:06:25.020Z,71.04
2023-01-06T09:07:26.619Z,70.47
2023-01-06T09:08:28.169Z,69.68
2023-01-06T09:09:29.758Z,70.25
2023-01-06T09:10:31.332Z,70.31
2023-01-06T09:11:33.179Z,69.04
2023-01-06T09:12:34.854Z,68.92
2023-01-06T09:13:37.326Z,68.39
2023-01-06T09:14:38.951Z,68.82
2023-01-06T09:15:41.711Z,68.70
2023-01-06T09:16:43.395Z,67.71
2023-01-06T09:17:44.938Z,69.22
2023-01-06T09:18:50.395Z,68.62
2023-01-06T09:19:51.965Z,66.08
2023-01-06T09:20:53.461Z,66.58
2023-01-06T09:21:54.986Z,67.25
2023-01-06T09:22:56.526Z,66.00
2023-01-06T09:23:58.101Z,65.28
2023-01-06T09:24:59.744Z,64.19
2023-01-06T09:26:01.302Z,63.04
2023-01-06T09:27:02.879Z,60.85
2023-01-06T09:28:04.492Z,61.30
2023-01-06T09:29:06.216Z,60.22
2023-01-06T09:30:08.393Z,61.45
2023-01-06T09:31:10.109Z,61.68
2023-01-06T09:32:11.672Z,61.28
2023-01-06T09:33:13.197Z,61.03
2023-01-06T09:34:14.941Z,60.40
2023-01-06T09:35:16.555Z,60.34
2023-01-06T09:36:18.118Z,58.89
2023-01-06T09:37:19.627Z,61.26
2023-01-06T09:38:21.245Z,63.25
2023-01-06T09:39:22.891Z,63.83
2023-01-06T09:40:48.727Z,63.96
2023-01-06T09:42:14.062Z,63.63
2023-01-06T09:43:34.020Z,65.07
2023-01-06T09:44:50.283Z,65.23
2023-01-06T09:45:55.858Z,64.50
2023-01-06T09:47:00.339Z,61.87
2023-01-06T09:48:04.067Z,60.23
2023-01-06T09:49:32.348Z,54.88
2023-01-06T09:50:53.255Z,55.45
2023-01-06T09:51:59.805Z,54.72
2023-01-06T09:53:09.951Z,55.18
2023-01-06T09:54:23.106Z,54.72
2023-01-06T09:55:36.356Z,53.99
2023-01-06T09:56:41.657Z,54.51
2023-01-06T09:57:58.989Z,54.66
2023-01-06T09:59:11.455Z,52.38
2023-01-06T10:00:50.358Z,52.03
2023-01-06T10:01:52.319Z,51.99
2023-01-06T10:02:54.076Z,52.79
2023-01-06T10:03:57.504Z,52.66
2023-01-06T10:04:59.180Z,52.43
2023-01-06T10:06:06.849Z,52.02
2023-01-06T10:07:25.368Z,51.79
2023-01-06T10:09:00.337Z,51.13
2023-01-06T10:10:23.052Z,51.48
2023-01-06T10:11:27.305Z,51.67
2023-01-06T10:12:47.336Z,50.59
2023-01-06T10:14:13.973Z,50.80
2023-01-06T10:15:18.038Z,51.39
2023-01-06T10:16:28.479Z,51.18
2023-01-06T10:17:36.257Z,51.06
2023-01-06T10:18:48.916Z,50.14
2023-01-06T10:20:23.269Z,50.08
2023-01-06T10:21:40.531Z,50.80
2023-01-06T10:23:14.630Z,51.56
2023-01-06T10:24:34.834Z,51.52
2023-01-06T10:25:57.609Z,51.30
2023-01-06T10:27:14.689Z,51.44
2023-01-06T10:28:19.362Z,51.32
2023-01-06T10:29:21.870Z,50.86
2023-01-06T10:30:30.809Z,51.47
2023-01-06T10:31:39.584Z,50.17
2023-01-06T10:32:42.927Z,49.92
2023-01-06T10:33:52.598Z,50.32
2023-01-06T10:34:55.752Z,50.35
2023-01-06T10:35:59.169Z,50.79
2023-01-06T10:37:09.897Z,50.45
2023-01-06T10:38:13.605Z,50.72
2023-01-06T10:39:21.531Z,50.87
2023-01-06T10:40:29.398Z,50.82
2023-01-06T10:41:39.328Z,50.29
2023-01-06T10:42:55.613Z,49.73
2023-01-06T10:43:57.768Z,49.77
2023-01-06T10:44:59.351Z,50.01
2023-01-06T10:46:00.897Z,50.28
2023-01-06T10:47:02.499Z,50.49
2023-01-06T10:48:06.896Z,50.17
2023-01-06T10:49:15.466Z,48.84
2023-01-06T10:50:18.993Z,49.53
2023-01-06T10:51:35.033Z,50.43
2023-01-06T10:52:37.199Z,50.68
2023-01-06T10:53:38.749Z,50.72
2023-01-06T10:54:42.255Z,49.61
2023-01-06T10:55:53.075Z,49.58
2023-01-06T10:57:04.527Z,48.71
2023-01-06T10:58:21.430Z,48.58
2023-01-06T10:59:23.002Z,48.34
2023-01-06T11:00:25.924Z,48.93
2023-01-06T11:01:33.951Z,48.47
2023-01-06T11:02:36.449Z,49.29
2023-01-06T11:03:42.795Z,50.04
2023-01-06T11:04:51.888Z,49.21
2023-01-06T11:06:28.046Z,49.09
2023-01-06T11:07:30.467Z,49.72
2023-01-06T11:08:33.267Z,48.83
2023-01-06T11:09:39.742Z,49.49
2023-01-06T11:10:51.936Z,49.23
2023-01-06T11:11:55.885Z,49.30
2023-01-06T11:13:00.456Z,49.40
2023-01-06T11:14:05.559Z,49.34
2023-01-06T11:15:08.674Z,49.47
2023-01-06T11:16:27.560Z,49.01
2023-01-06T11:17:30.040Z,50.10
2023-01-06T11:18:34.074Z,49.22
2023-01-06T11:19:41.412Z,49.29
2023-01-06T11:20:43.549Z,48.97
2023-01-06T11:21:49.503Z,48.78
2023-01-06T11:22:51.301Z,49.32
2023-01-06T11:24:15.544Z,49.40
2023-01-06T11:25:20.065Z,49.18
2023-01-06T11:26:23.666Z,48.63
2023-01-06T11:27:25.410Z,48.64
2023-01-06T11:28:27.015Z,49.49
2023-01-06T11:29:33.779Z,48.61
2023-01-06T11:30:48.917Z,49.64
2023-01-06T11:31:50.989Z,49.53
2023-01-06T11:32:53.449Z,49.51
2023-01-06T11:33:59.371Z,48.67
2023-01-06T11:35:03.698Z,49.53
2023-01-06T11:36:13.736Z,49.74
2023-01-06T11:37:15.302Z,49.06
2023-01-06T11:38:20.125Z,48.79
2023-01-06T11:39:27.867Z,48.15
2023-01-06T11:40:32.609Z,48.39
2023-01-06T11:41:40.214Z,48.66
2023-01-06T11:43:51.647Z,49.25
2023-01-06T11:44:53.851Z,49.39
2023-01-06T11:46:07.976Z,49.01
2023-01-06T11:47:16.834Z,49.31
2023-01-06T11:48:34.576Z,49.18
2023-01-06T11:49:59.047Z,48.55
2023-01-06T11:51:03.880Z,49.02
2023-01-06T11:52:18.902Z,48.28
2023-01-06T11:53:21.569Z,48.11
2023-01-06T11:54:33.734Z,48.27
2023-01-06T11:55:35.309Z,48.07
2023-01-06T11:56:37.489Z,48.17
2023-01-06T11:57:44.476Z,48.21
2023-01-06T11:58:51.991Z,47.44
2023-01-06T12:00:16.954Z,47.86
2023-01-06T12:01:54.001Z,47.76
2023-01-06T12:03:10.577Z,47.52
2023-01-06T12:04:19.620Z,47.65
2023-01-06T12:05:35.115Z,48.20
2023-01-06T12:06:45.262Z,48.32
2023-01-06T12:07:52.876Z,47.75
2023-01-06T12:09:06.570Z,47.67
2023-01-06T12:10:20.279Z,47.79
2023-01-06T12:11:45.586Z,48.29
2023-01-06T12:12:48.483Z,48.63
2023-01-06T12:14:10.660Z,48.70
2023-01-06T12:15:14.876Z,48.69
2023-01-06T12:16:28.998Z,49.07
2023-01-06T12:17:40.734Z,48.66
2023-01-06T12:18:42.997Z,48.28
2023-01-06T12:19:53.683Z,49.00
2023-01-06T12:20:56.836Z,49.51
2023-01-06T12:21:59.424Z,49.55
2023-01-06T12:23:24.730Z,49.28
2023-01-06T12:24:27.170Z,49.13
2023-01-06T12:25:58.370Z,48.83
2023-01-06T12:27:04.953Z,49.24
2023-01-06T12:28:19.872Z,48.73
2023-01-06T12:29:22.267Z,49.41
2023-01-06T12:30:23.734Z,49.28
2023-01-06T12:31:36.617Z,49.31
2023-01-06T12:32:43.177Z,49.72
2023-01-06T12:33:54.665Z,49.54
2023-01-06T12:35:02.522Z,49.56
2023-01-06T12:36:23.249Z,49.88
2023-01-06T12:37:31.873Z,49.79
2023-01-06T12:38:52.133Z,50.54
2023-01-06T12:39:59.833Z,50.21
2023-01-06T12:41:08.919Z,50.86
2023-01-06T12:42:23.594Z,49.46
2023-01-06T12:43:29.641Z,50.12
2023-01-06T12:44:52.644Z,49.81
2023-01-06T12:46:28.708Z,50.10
2023-01-06T12:47:43.160Z,49.59
2023-01-06T12:49:03.307Z,49.84
2023-01-06T12:50:26.274Z,50.45
2023-01-06T12:51:42.310Z,49.35
2023-01-06T12:53:01.260Z,49.66
2023-01-06T12:54:24.318Z,49.53
2023-01-06T12:55:52.147Z,49.88
2023-01-06T12:57:01.769Z,49.99
2023-01-06T12:58:26.153Z,49.75
2023-01-06T12:59:27.646Z,48.79
2023-01-06T13:00:41.315Z,49.19
2023-01-06T13:01:51.044Z,49.03
2023-01-06T13:03:40.288Z,48.09
2023-01-06T13:04:59.939Z,47.91
2023-01-06T13:06:20.307Z,47.72
2023-01-06T13:07:48.351Z,47.67
2023-01-06T13:08:56.231Z,47.92
2023-01-06T13:10:26.666Z,47.82
2023-01-06T13:11:43.536Z,47.50
2023-01-06T13:12:53.980Z,47.53
2023-01-06T13:14:15.795Z,47.99
2023-01-06T13:15:25.535Z,47.85
2023-01-06T13:16:38.315Z,47.43
2023-01-06T13:17:50.565Z,47.64
2023-01-06T13:19:10.366Z,47.07
2023-01-06T13:20:23.163Z,47.51
2023-01-06T13:21:25.350Z,46.29
2023-01-06T13:22:55.726Z,46.71
2023-01-06T13:24:20.870Z,47.48
2023-01-06T13:25:41.076Z,47.34
2023-01-06T13:26:57.904Z,47.72
2023-01-06T13:28:10.012Z,46.43
2023-01-06T13:29:31.275Z,46.90
2023-01-06T13:30:41.823Z,46.88
2023-01-06T13:32:11.010Z,47.29
2023-01-06T13:33:31.218Z,46.52
2023-01-06T13:35:10.123Z,47.12
2023-01-06T13:36:39.075Z,47.62
2023-01-06T13:38:05.426Z,47.27
2023-01-06T13:39:24.148Z,47.88
2023-01-06T13:40:29.628Z,47.97
2023-01-06T13:41:35.377Z,48.73
2023-01-06T13:43:06.025Z,48.31
2023-01-06T13:44:25.828Z,48.61
2023-01-06T13:45:40.808Z,49.06
2023-01-06T13:46:42.871Z,48.72
2023-01-06T13:47:46.759Z,48.86
2023-01-06T13:48:55.555Z,49.04
2023-01-06T13:49:58.486Z,49.31
2023-01-06T13:51:04.587Z,49.01
2023-01-06T13:52:14.880Z,48.71
2023-01-06T13:53:20.084Z,49.18
2023-01-06T13:54:39.868Z,49.42
2023-01-06T13:55:41.513Z,49.53
2023-01-06T13:56:43.130Z,49.18
2023-01-06T13:57:44.861Z,49.67
2023-01-06T13:58:47.101Z,50.20
2023-01-06T13:59:48.724Z,49.65
2023-01-06T14:01:11.000Z,49.38
2023-01-06T14:02:35.670Z,49.58
2023-01-06T14:03:41.904Z,48.74
2023-01-06T14:04:45.439Z,49.45
2023-01-06T14:05:46.891Z,49.57
2023-01-06T14:06:49.325Z,49.49
2023-01-06T14:07:53.821Z,49.39
2023-01-06T14:08:58.865Z,49.40
2023-01-06T14:10:01.549Z,49.17
2023-01-06T14:11:20.381Z,49.54
2023-01-06T14:12:24.039Z,49.50
2023-01-06T14:13:30.495Z,49.37